createdAt,value
2023-03-05T00:01:18.293Z,36.95
2023-03-05T00:03:45.494Z,37.75
2023-03-05T00:06:12.116Z,40.83
2023-03-05T00:08:38.773Z,38.25
2023-03-05T00:11:08.875Z,36.75
2023-03-05T00:13:35.899Z,28.42
2023-03-05T00:16:04.660Z,30.80
2023-03-05T00:18:31.320Z,34.30
2023-03-05T00:20:57.913Z,31.63
2023-03-05T00:23:24.464Z,28.83
2023-03-05T00:25:51.325Z,33.17
2023-03-05T00:28:17.924Z,30.38
2023-03-05T00:30:44.587Z,31.08
2023-03-05T00:33:12.523Z,37.42
2023-03-05T00:35:44.088Z,37.10
2023-03-05T00:38:11.231Z,36.55
2023-03-05T00:40:39.493Z,38.15
2023-03-05T00:43:07.181Z,35.25
2023-03-05T00:45:34.078Z,33.30
2023-03-05T00:48:00.897Z,32.92
2023-03-05T00:50:28.090Z,35.65
2023-03-05T00:52:55.010Z,36.13
2023-03-05T00:55:22.175Z,44.47
2023-03-05T00:57:48.649Z,37.70
2023-03-05T01:00:16.136Z,32.13
2023-03-05T01:02:42.652Z,36.03
2023-03-05T01:05:12.546Z,31.73
2023-03-05T01:07:39.166Z,33.60
2023-03-05T01:10:06.730Z,33.00
2023-03-05T01:12:33.221Z,32.95
2023-03-05T01:14:59.716Z,34.97
2023-03-05T01:17:26.146Z,39.78
2023-03-05T01:19:52.670Z,37.53
2023-03-05T01:22:19.191Z,41.28
2023-03-05T01:24:45.633Z,40.30
2023-03-05T01:27:12.405Z,38.88
2023-03-05T01:29:38.874Z,42.83
2023-03-05T01:32:05.616Z,37.78
2023-03-05T01:34:32.548Z,40.28
2023-03-05T01:36:58.945Z,37.40
2023-03-05T01:39:25.363Z,39.45
2023-03-05T01:41:51.768Z,42.20
2023-03-05T01:44:23.006Z,35.35
2023-03-05T01:46:49.960Z,34.85
2023-03-05T01:49:38.738Z,36.03
2023-03-05T01:52:13.934Z,37.22
2023-03-05T01:54:47.939Z,33.05
2023-03-05T01:57:18.010Z,32.58
2023-03-05T01:59:48.522Z,34.90
2023-03-05T02:02:15.140Z,34.63
2023-03-05T02:04:54.763Z,31.95
2023-03-05T02:07:22.388Z,30.05
2023-03-05T02:09:49.763Z,32.58
2023-03-05T02:12:16.963Z,37.10
2023-03-05T02:14:46.547Z,34.85
2023-03-05T02:17:13.773Z,33.13
2023-03-05T02:20:02.511Z,36.97
2023-03-05T02:22:28.946Z,28.92
2023-03-05T02:24:55.409Z,28.80
2023-03-05T02:27:34.626Z,34.20
2023-03-05T02:30:02.002Z,32.63
2023-03-05T02:32:28.483Z,34.15
2023-03-05T02:34:54.955Z,35.88
2023-03-05T02:37:21.369Z,33.95
2023-03-05T02:39:47.808Z,36.10
2023-03-05T02:42:14.245Z,33.88
2023-03-05T02:44:40.724Z,36.95
2023-03-05T02:47:07.356Z,35.45
2023-03-05T02:49:33.795Z,35.33
2023-03-05T02:52:00.289Z,34.72
2023-03-05T02:54:26.782Z,37.40
2023-03-05T02:56:53.262Z,37.05
2023-03-05T02:59:19.687Z,33.00
2023-03-05T03:01:46.120Z,36.50
2023-03-05T03:04:12.552Z,35.20
2023-03-05T03:06:39.006Z,35.17
2023-03-05T03:09:05.488Z,35.53
2023-03-05T03:11:31.960Z,36.05
2023-03-05T03:13:59.841Z,34.92
2023-03-05T03:16:26.320Z,35.03
2023-03-05T03:18:52.775Z,38.33
2023-03-05T03:21:22.579Z,37.97
2023-03-05T03:23:49.063Z,38.63
2023-03-05T03:26:15.561Z,42.90
2023-03-05T03:28:42.062Z,41.30
2023-03-05T03:31:08.932Z,38.45
2023-03-05T03:33:35.515Z,39.92
2023-03-05T03:36:03.500Z,36.20
2023-03-05T03:38:29.931Z,34.80
2023-03-05T03:40:56.416Z,35.90
2023-03-05T03:43:22.948Z,32.83
2023-03-05T03:45:49.427Z,35.50
2023-03-05T03:48:15.937Z,31.85
2023-03-05T03:50:43.651Z,32.05
2023-03-05T03:53:14.114Z,34.75
2023-03-05T03:55:42.723Z,32.95
2023-03-05T03:58:09.659Z,32.05
2023-03-05T04:00:36.300Z,35.70
2023-03-05T04:03:02.746Z,29.88
2023-03-05T04:05:29.170Z,30.15
2023-03-05T04:07:55.653Z,32.33
2023-03-05T04:10:22.088Z,30.20
2023-03-05T04:12:48.529Z,34.15
2023-03-05T04:15:15.118Z,35.78
2023-03-05T04:17:41.516Z,32.85
2023-03-05T04:20:10.410Z,33.75
2023-03-05T04:22:37.631Z,34.28
2023-03-05T04:25:06.541Z,32.15
2023-03-05T04:27:34.252Z,31.33
2023-03-05T04:30:01.063Z,35.75
2023-03-05T04:32:29.784Z,35.67
2023-03-05T04:34:57.043Z,35.83
2023-03-05T04:37:25.103Z,36.88
2023-03-05T04:39:52.731Z,36.83
2023-03-05T04:42:21.089Z,38.25
2023-03-05T04:44:49.352Z,33.15
2023-03-05T04:47:16.600Z,37.00
2023-03-05T04:49:43.026Z,36.72
2023-03-05T04:52:12.219Z,35.67
2023-03-05T04:54:39.013Z,34.47
2023-03-05T04:57:05.910Z,40.58
2023-03-05T04:59:32.385Z,38.58
2023-03-05T05:01:58.830Z,29.77
2023-03-05T05:04:25.265Z,24.70
2023-03-05T05:06:56.153Z,24.08
2023-03-05T05:09:23.555Z,24.80
2023-03-05T05:11:50.124Z,23.92
2023-03-05T05:14:16.597Z,27.95
2023-03-05T05:16:43.255Z,28.30
2023-03-05T05:19:09.728Z,29.75
2023-03-05T05:21:36.269Z,30.65
2023-03-05T05:24:02.745Z,29.73
2023-03-05T05:26:29.244Z,27.48
2023-03-05T05:28:55.692Z,28.27
2023-03-05T05:31:22.155Z,27.33
2023-03-05T05:33:49.931Z,22.20
2023-03-05T05:36:19.164Z,21.77
2023-03-05T05:38:46.000Z,22.25
2023-03-05T05:41:15.559Z,22.50
2023-03-05T05:43:42.512Z,20.80
2023-03-05T05:46:12.986Z,22.20
2023-03-05T05:48:40.012Z,26.08
2023-03-05T05:51:19.023Z,22.88
2023-03-05T05:53:46.039Z,21.35
2023-03-05T05:56:13.634Z,23.25
2023-03-05T05:58:41.275Z,24.05
2023-03-05T06:01:21.711Z,24.88
2023-03-05T06:03:48.287Z,25.95
2023-03-05T06:06:17.619Z,27.15
2023-03-05T06:08:44.738Z,26.50
2023-03-05T06:11:11.276Z,28.10
2023-03-05T06:13:38.633Z,33.95
2023-03-05T06:16:08.683Z,30.05
2023-03-05T06:18:35.634Z,28.83
2023-03-05T06:21:05.469Z,26.95
2023-03-05T06:23:32.368Z,27.65
2023-03-05T06:26:00.763Z,27.10
2023-03-05T06:28:27.323Z,28.10
2023-03-05T06:31:05.445Z,27.00
2023-03-05T06:33:32.565Z,31.23
2023-03-05T06:35:59.704Z,28.40
2023-03-05T06:38:26.407Z,30.95
2023-03-05T06:40:52.877Z,31.38
2023-03-05T06:43:19.596Z,35.45
2023-03-05T06:45:46.154Z,30.42
2023-03-05T06:48:12.846Z,29.23
2023-03-05T06:50:40.181Z,29.45
2023-03-05T06:53:06.659Z,29.33
2023-03-05T06:55:39.598Z,28.95
2023-03-05T06:58:06.772Z,32.28
2023-03-05T07:00:33.273Z,32.75
2023-03-05T07:02:59.765Z,31.92
2023-03-05T07:05:26.198Z,37.35
2023-03-05T07:07:52.629Z,41.88
2023-03-05T07:10:19.444Z,39.58
2023-03-05T07:12:45.900Z,41.65
2023-03-05T07:15:12.765Z,41.30
2023-03-05T07:17:39.197Z,45.50
2023-03-05T07:20:06.397Z,50.47
2023-03-05T07:22:32.898Z,47.83
2023-03-05T07:24:59.373Z,53.13
2023-03-05T07:27:25.818Z,52.30
2023-03-05T07:29:52.425Z,49.42
2023-03-05T07:32:19.074Z,52.00
2023-03-05T07:34:45.508Z,50.65
2023-03-05T07:37:13.245Z,54.65
2023-03-05T07:39:39.667Z,52.30
2023-03-05T07:42:06.293Z,57.72
2023-03-05T07:44:32.942Z,60.78
2023-03-05T07:46:59.491Z,55.00
2023-03-05T07:49:26.072Z,56.78
2023-03-05T07:51:52.564Z,59.40
2023-03-05T07:54:19.034Z,59.88
2023-03-05T07:56:45.540Z,64.97
2023-03-05T07:59:13.376Z,61.25
2023-03-05T08:01:40.283Z,59.60
2023-03-05T08:04:08.743Z,58.17
2023-03-05T08:06:35.217Z,56.83
2023-03-05T08:09:01.683Z,56.28
2023-03-05T08:11:28.756Z,54.05
2023-03-05T08:13:56.213Z,54.92
2023-03-05T08:16:25.804Z,54.22
2023-03-05T08:18:56.032Z,55.10
2023-03-05T08:21:29.381Z,56.53
2023-03-05T08:23:57.308Z,54.55
2023-03-05T08:26:26.148Z,51.97
2023-03-05T08:28:53.128Z,60.10
2023-03-05T08:31:22.041Z,51.33
2023-03-05T08:33:53.688Z,57.15
2023-03-05T08:36:20.331Z,56.67
2023-03-05T08:38:48.552Z,54.60
2023-03-05T08:41:17.290Z,55.35
2023-03-05T08:43:43.851Z,54.50
2023-03-05T08:46:12.665Z,47.85
2023-03-05T08:48:39.528Z,47.47
2023-03-05T08:51:17.612Z,49.15
2023-03-05T08:53:45.255Z,49.00
2023-03-05T08:56:12.523Z,46.83
2023-03-05T08:58:39.024Z,48.00
2023-03-05T09:01:06.087Z,48.63
2023-03-05T09:03:32.708Z,51.22
2023-03-05T09:06:04.919Z,52.17
2023-03-05T09:08:31.660Z,51.65
2023-03-05T09:10:58.217Z,53.03
2023-03-05T09:13:24.809Z,54.08
2023-03-05T09:15:59.562Z,54.17
2023-03-05T09:18:26.908Z,54.60
2023-03-05T09:20:53.914Z,54.33
2023-03-05T09:23:20.479Z,53.95
2023-03-05T09:25:47.014Z,52.40
2023-03-05T09:28:13.542Z,51.80
2023-03-05T09:30:40.017Z,53.55
2023-03-05T09:33:07.154Z,55.47
2023-03-05T09:35:37.239Z,55.83
2023-03-05T09:38:04.799Z,55.25
2023-03-05T09:40:45.666Z,52.75
2023-03-05T09:43:36.441Z,51.03
2023-03-05T09:46:33.174Z,47.87
2023-03-05T09:49:16.055Z,46.80
2023-03-05T09:51:46.712Z,45.05
2023-03-05T09:54:25.047Z,44.00
2023-03-05T09:56:56.949Z,46.42
2023-03-05T09:59:32.719Z,43.45
2023-03-05T10:02:23.224Z,46.78
2023-03-05T10:04:59.881Z,44.72
2023-03-05T10:07:30.932Z,43.17
2023-03-05T10:10:02.450Z,46.40
2023-03-05T10:12:43.057Z,45.20
2023-03-05T10:15:21.062Z,44.33
2023-03-05T10:18:00.598Z,45.40
2023-03-05T10:20:39.119Z,43.60
2023-03-05T10:23:15.959Z,46.28
2023-03-05T10:25:57.604Z,43.38
2023-03-05T10:28:46.533Z,44.78
2023-03-05T10:31:38.375Z,41.60
2023-03-05T10:34:54.543Z,41.30
2023-03-05T10:37:29.698Z,41.28
2023-03-05T10:40:09.685Z,38.90
2023-03-05T10:42:58.640Z,36.42
2023-03-05T10:45:32.108Z,38.35
2023-03-05T10:48:27.952Z,37.53
2023-03-05T10:51:01.426Z,34.85
2023-03-05T10:53:29.118Z,41.38
2023-03-05T10:55:58.263Z,34.25
2023-03-05T10:58:25.178Z,34.97
2023-03-05T11:01:25.578Z,33.33
2023-03-05T11:03:54.015Z,35.63
2023-03-05T11:06:34.525Z,35.22
2023-03-05T11:09:40.596Z,33.22
2023-03-05T11:12:09.846Z,35.47
2023-03-05T11:14:39.935Z,35.42
2023-03-05T11:17:28.384Z,29.92
2023-03-05T11:19:56.981Z,35.38
2023-03-05T11:22:25.177Z,34.88
2023-03-05T11:25:15.150Z,33.00
2023-03-05T11:28:01.864Z,34.72
2023-03-05T11:30:35.575Z,30.63
2023-03-05T11:33:14.478Z,30.33
2023-03-05T11:35:43.629Z,30.65
2023-03-05T11:38:24.990Z,33.30
2023-03-05T11:43:22.264Z,52.00
2023-03-05T11:45:52.411Z,33.63
2023-03-05T11:48:24.398Z,30.58
2023-03-05T11:51:01.412Z,32.17
2023-03-05T11:53:29.511Z,29.25
2023-03-05T11:56:03.807Z,33.65
2023-03-05T11:58:42.543Z,33.75
2023-03-05T12:01:23.488Z,32.05
2023-03-05T12:03:51.321Z,30.70
2023-03-05T12:06:28.858Z,28.10
2023-03-05T12:09:02.772Z,33.97
2023-03-05T12:11:32.150Z,33.97
2023-03-05T12:14:10.739Z,31.23
2023-03-05T12:16:46.419Z,33.70
2023-03-05T12:19:35.590Z,33.13
2023-03-05T12:22:03.796Z,31.45
2023-03-05T12:24:35.580Z,30.45
2023-03-05T12:27:05.164Z,31.40
2023-03-05T12:29:43.919Z,31.48
2023-03-05T12:32:22.763Z,33.38
2023-03-05T12:35:22.898Z,29.48
2023-03-05T12:37:52.501Z,29.80
2023-03-05T12:40:31.416Z,28.13
2023-03-05T12:42:59.384Z,30.25
2023-03-05T12:45:42.810Z,29.35
2023-03-05T12:48:12.558Z,32.47
2023-03-05T12:50:39.049Z,28.63
2023-03-05T12:53:18.806Z,26.85
2023-03-05T12:55:48.199Z,29.23
2023-03-05T12:58:21.376Z,28.58
2023-03-05T13:01:11.050Z,28.52
2023-03-05T13:03:47.330Z,26.08
2023-03-05T13:06:29.790Z,29.00
2023-03-05T13:09:21.674Z,26.52
2023-03-05T13:11:51.682Z,25.15
2023-03-05T13:14:36.038Z,23.77
2023-03-05T13:17:23.233Z,26.25
2023-03-05T13:19:50.028Z,23.25
2023-03-05T13:22:16.499Z,24.80
2023-03-05T13:24:43.002Z,25.83
2023-03-05T13:27:30.073Z,22.35
2023-03-05T13:29:56.555Z,21.73
2023-03-05T13:32:28.416Z,21.17
2023-03-05T13:34:57.958Z,22.33
2023-03-05T13:37:27.201Z,22.77
2023-03-05T13:39:57.685Z,21.73
2023-03-05T13:42:34.516Z,24.20
2023-03-05T13:45:05.860Z,26.98
2023-03-05T13:47:35.532Z,21.45
2023-03-05T13:50:08.011Z,22.98
2023-03-05T13:52:38.567Z,22.20
2023-03-05T13:55:13.522Z,18.55
2023-03-05T13:57:53.757Z,18.63
2023-03-05T14:00:28.769Z,22.80
2023-03-05T14:02:59.598Z,20.52
2023-03-05T14:05:35.298Z,23.00
2023-03-05T14:08:02.407Z,22.90
2023-03-05T14:10:30.946Z,20.80
2023-03-05T14:12:59.782Z,21.33
2023-03-05T14:15:34.208Z,18.70
2023-03-05T14:18:14.588Z,20.25
2023-03-05T14:21:03.590Z,21.23
2023-03-05T14:23:48.225Z,18.95
2023-03-05T14:26:24.008Z,18.90
2023-03-05T14:28:56.459Z,19.10
2023-03-05T14:31:24.162Z,22.92
2023-03-05T14:33:52.097Z,21.60
2023-03-05T14:36:24.549Z,23.63
2023-03-05T14:38:53.400Z,22.10
2023-03-05T14:41:38.880Z,19.88
2023-03-05T14:44:17.529Z,21.58
2023-03-05T14:46:49.086Z,22.27
2023-03-05T14:49:16.145Z,21.48
2023-03-05T14:51:45.374Z,19.35
2023-03-05T14:54:20.847Z,21.58
2023-03-05T14:56:48.726Z,20.42
2023-03-05T14:59:17.268Z,21.25
2023-03-05T15:01:43.854Z,20.90
2023-03-05T15:04:10.671Z,21.70
2023-03-05T15:06:40.268Z,19.70
2023-03-05T15:09:08.002Z,20.48
2023-03-05T15:11:35.137Z,24.13
2023-03-05T15:14:01.624Z,21.02
2023-03-05T15:16:28.288Z,21.98
2023-03-05T15:18:54.765Z,21.58
2023-03-05T15:21:21.213Z,21.98
2023-03-05T15:23:47.755Z,20.65
2023-03-05T15:26:15.096Z,21.60
2023-03-05T15:28:42.766Z,20.75
2023-03-05T15:31:09.997Z,20.60
2023-03-05T15:33:36.534Z,19.25
2023-03-05T15:36:03.601Z,22.88
2023-03-05T15:38:30.053Z,23.75
2023-03-05T15:40:56.605Z,22.77
2023-03-05T15:43:23.215Z,20.42
2023-03-05T15:45:49.654Z,22.55
2023-03-05T15:48:16.277Z,22.23
2023-03-05T15:50:45.849Z,21.65
2023-03-05T15:53:16.120Z,22.95
2023-03-05T15:55:43.815Z,22.67
2023-03-05T15:58:14.871Z,22.85
2023-03-05T16:00:41.461Z,21.55
2023-03-05T16:03:08.035Z,21.58
2023-03-05T16:05:36.480Z,19.27
2023-03-05T16:08:03.314Z,22.30
2023-03-05T16:10:30.938Z,31.10
2023-03-05T16:13:20.564Z,23.20
2023-03-05T16:15:52.782Z,21.70
2023-03-05T16:18:20.192Z,24.10
2023-03-05T16:20:47.664Z,23.50
2023-03-05T16:23:14.550Z,21.75
2023-03-05T16:25:41.041Z,24.10
2023-03-05T16:28:07.468Z,22.00
2023-03-05T16:30:33.921Z,22.17
2023-03-05T16:33:00.724Z,23.80
2023-03-05T16:35:27.276Z,21.92
2023-03-05T16:37:53.865Z,27.90
2023-03-05T16:40:20.383Z,28.38
2023-03-05T16:42:46.821Z,28.85
2023-03-05T16:45:13.548Z,27.88
2023-03-05T16:47:40.595Z,28.92
2023-03-05T16:50:08.945Z,30.38
2023-03-05T16:52:36.132Z,35.88
2023-03-05T16:55:04.358Z,28.92
2023-03-05T16:57:30.866Z,29.88
2023-03-05T16:59:58.416Z,27.80
2023-03-05T17:02:24.912Z,32.53
2023-03-05T17:04:51.433Z,31.42
2023-03-05T17:07:18.637Z,29.08
2023-03-05T17:09:46.423Z,29.48
2023-03-05T17:12:12.932Z,29.25
2023-03-05T17:14:40.031Z,28.08
2023-03-05T17:17:06.654Z,26.98
2023-03-05T17:19:33.308Z,29.75
2023-03-05T17:21:59.938Z,32.17
2023-03-05T17:24:26.862Z,27.65
2023-03-05T17:26:53.476Z,30.02
2023-03-05T17:29:21.616Z,30.52
2023-03-05T17:31:50.838Z,31.35
2023-03-05T17:34:18.408Z,31.63
2023-03-05T17:36:50.392Z,29.95
2023-03-05T17:39:20.762Z,34.65
2023-03-05T17:41:47.480Z,34.13
2023-03-05T17:44:14.426Z,34.45
2023-03-05T17:46:41.118Z,33.30
2023-03-05T17:49:07.603Z,34.13
2023-03-05T17:51:34.206Z,36.05
2023-03-05T17:54:00.891Z,42.03
2023-03-05T17:56:27.517Z,48.25
2023-03-05T17:58:54.552Z,44.28
2023-03-05T18:01:30.711Z,46.08
2023-03-05T18:03:57.456Z,43.80
2023-03-05T18:06:25.108Z,43.80
2023-03-05T18:08:51.720Z,39.03
2023-03-05T18:11:18.691Z,40.80
2023-03-05T18:13:45.442Z,46.10
2023-03-05T18:16:14.355Z,44.33
2023-03-05T18:18:41.723Z,37.40
2023-03-05T18:21:08.566Z,36.08
2023-03-05T18:23:36.486Z,36.05
2023-03-05T18:26:03.173Z,38.10
2023-03-05T18:28:29.853Z,34.30
2023-03-05T18:30:56.551Z,32.28
2023-03-05T18:33:24.990Z,32.63
2023-03-05T18:35:52.560Z,32.72
2023-03-05T18:38:21.322Z,35.92
2023-03-05T18:40:51.162Z,34.20
2023-03-05T18:43:20.650Z,31.20
2023-03-05T18:45:52.763Z,33.35
2023-03-05T18:48:20.178Z,41.28
2023-03-05T18:50:50.454Z,37.88
2023-03-05T18:53:17.283Z,42.60
2023-03-05T18:55:44.889Z,40.03
2023-03-05T18:58:15.520Z,37.92
2023-03-05T19:00:42.932Z,37.95
2023-03-05T19:03:11.661Z,37.53
2023-03-05T19:05:39.145Z,37.55
2023-03-05T19:08:07.711Z,35.38
2023-03-05T19:10:34.657Z,55.53
2023-03-05T19:13:48.999Z,74.45
2023-03-05T19:16:23.239Z,66.00
2023-03-05T19:19:20.520Z,52.25
2023-03-05T19:21:49.953Z,43.35
2023-03-05T19:24:17.305Z,50.20
2023-03-05T19:26:44.235Z,54.42
2023-03-05T19:29:11.912Z,52.08
2023-03-05T19:31:38.542Z,44.53
2023-03-05T19:34:05.881Z,47.17
2023-03-05T19:36:34.379Z,41.53
2023-03-05T19:39:04.295Z,44.28
2023-03-05T19:41:30.997Z,43.25
2023-03-05T19:43:58.158Z,38.92
2023-03-05T19:46:25.291Z,45.30
2023-03-05T19:48:52.269Z,49.45
2023-03-05T19:51:21.772Z,44.03
2023-03-05T19:53:49.268Z,47.13
2023-03-05T19:56:17.250Z,46.38
2023-03-05T19:58:45.836Z,43.90
2023-03-05T20:01:23.574Z,44.58
2023-03-05T20:04:24.641Z,45.15
2023-03-05T20:06:51.717Z,44.75
2023-03-05T20:09:18.671Z,37.17
2023-03-05T20:11:46.235Z,37.92
2023-03-05T20:14:16.125Z,38.95
2023-03-05T20:16:43.505Z,43.58
2023-03-05T20:19:16.271Z,38.10
2023-03-05T20:21:43.563Z,40.70
2023-03-05T20:24:16.173Z,35.83
2023-03-05T20:26:44.813Z,36.55
2023-03-05T20:29:14.878Z,38.17
2023-03-05T20:31:43.674Z,39.33
2023-03-05T20:34:13.736Z,40.13
2023-03-05T20:36:40.768Z,40.53
2023-03-05T20:39:08.425Z,37.08
2023-03-05T20:41:38.222Z,41.15
2023-03-05T20:44:05.907Z,35.45
2023-03-05T20:46:35.941Z,35.38
2023-03-05T20:49:04.490Z,35.65
2023-03-05T20:51:35.027Z,36.95
2023-03-05T20:54:11.470Z,38.13
2023-03-05T20:56:39.122Z,37.83
2023-03-05T20:59:11.021Z,37.88
2023-03-05T21:01:39.865Z,35.85
2023-03-05T21:04:07.603Z,36.70
2023-03-05T21:06:35.203Z,38.22
2023-03-05T21:09:02.446Z,38.00
2023-03-05T21:11:32.075Z,38.67
2023-03-05T21:13:59.263Z,39.17
2023-03-05T21:16:27.387Z,39.78
2023-03-05T21:18:56.122Z,40.42
2023-03-05T21:21:23.082Z,41.13
2023-03-05T21:23:49.979Z,38.38
2023-03-05T21:26:17.950Z,40.72
2023-03-05T21:28:44.600Z,38.25
2023-03-05T21:31:16.569Z,39.75
2023-03-05T21:33:43.100Z,38.97
2023-03-05T21:36:10.550Z,39.95
2023-03-05T21:38:37.208Z,40.10
2023-03-05T21:41:06.998Z,39.13
2023-03-05T21:43:34.000Z,40.33
2023-03-05T21:46:03.025Z,39.67
2023-03-05T21:48:30.181Z,41.05
2023-03-05T21:50:58.361Z,40.38
2023-03-05T21:53:25.162Z,42.17
2023-03-05T21:56:25.412Z,40.60
2023-03-05T21:58:53.030Z,39.83
2023-03-05T22:01:21.207Z,40.00
2023-03-05T22:03:48.823Z,45.00
2023-03-05T22:06:17.268Z,43.65
2023-03-05T22:08:43.790Z,42.90
2023-03-05T22:11:11.333Z,44.17
2023-03-05T22:13:38.387Z,43.42
2023-03-05T22:16:05.946Z,41.42
2023-03-05T22:18:33.182Z,42.85
2023-03-05T22:21:00.674Z,41.67
2023-03-05T22:23:30.619Z,41.85
2023-03-05T22:26:01.469Z,43.70
2023-03-05T22:28:28.817Z,43.15
2023-03-05T22:30:55.976Z,42.25
2023-03-05T22:33:23.293Z,39.97
2023-03-05T22:35:50.492Z,39.85
2023-03-05T22:38:17.735Z,39.25
2023-03-05T22:40:45.709Z,38.35
2023-03-05T22:43:13.024Z,39.13
2023-03-05T22:45:40.005Z,38.55
2023-03-05T22:48:09.701Z,38.67
2023-03-05T22:50:40.339Z,36.55
2023-03-05T22:53:06.892Z,39.20
2023-03-05T22:55:33.313Z,35.15
2023-03-05T22:57:59.785Z,37.80
2023-03-05T23:00:26.751Z,37.17
2023-03-05T23:02:53.940Z,38.53
2023-03-05T23:05:21.453Z,42.63
2023-03-05T23:07:48.043Z,39.65
2023-03-05T23:10:20.545Z,39.40
2023-03-05T23:12:50.168Z,42.10
2023-03-05T23:15:37.304Z,37.88
2023-03-05T23:18:06.234Z,38.63
2023-03-05T23:20:35.137Z,40.90
2023-03-05T23:23:03.287Z,39.13
2023-03-05T23:25:32.789Z,35.92
2023-03-05T23:28:00.238Z,36.65
2023-03-05T23:30:28.891Z,39.15
2023-03-05T23:32:58.785Z,40.38
2023-03-05T23:35:28.045Z,40.25
2023-03-05T23:37:55.976Z,37.38
2023-03-05T23:40:28.282Z,38.85
2023-03-05T23:42:54.804Z,37.10
2023-03-05T23:45:22.464Z,43.55
2023-03-05T23:47:49.716Z,40.58
2023-03-05T23:50:18.766Z,44.15
2023-03-05T23:52:45.570Z,38.60
2023-03-05T23:55:26.955Z,38.55
2023-03-05T23:57:54.138Z,39.78
